createdAt,value
2022-09-25T00:00:19.598Z,39.13
2022-09-25T00:03:05.544Z,39.27
2022-09-25T00:05:51.705Z,39.28
2022-09-25T00:08:38.306Z,39.50
2022-09-25T00:11:27.736Z,39.45
2022-09-25T00:14:14.102Z,39.14
2022-09-25T00:17:00.587Z,39.13
2022-09-25T00:19:53.149Z,39.44
2022-09-25T00:22:42.572Z,39.00
2022-09-25T00:25:28.679Z,39.55
2022-09-25T00:28:18.232Z,39.18
2022-09-25T00:31:06.066Z,39.17
2022-09-25T00:33:54.295Z,39.21
2022-09-25T00:36:40.040Z,39.24
2022-09-25T00:39:26.428Z,39.45
2022-09-25T00:42:14.052Z,39.61
2022-09-25T00:45:07.902Z,39.58
2022-09-25T00:47:56.687Z,39.51
2022-09-25T00:50:54.451Z,39.67
2022-09-25T00:53:41.004Z,39.81
2022-09-25T00:56:30.635Z,39.97
2022-09-25T00:59:21.586Z,40.10
2022-09-25T01:02:14.242Z,39.94
2022-09-25T01:05:04.634Z,39.85
2022-09-25T01:07:52.335Z,40.19
2022-09-25T01:10:38.370Z,40.24
2022-09-25T01:13:24.666Z,39.94
2022-09-25T01:16:32.322Z,39.74
2022-09-25T01:19:45.853Z,40.52
2022-09-25T01:22:50.300Z,40.50
2022-09-25T01:26:18.968Z,40.84
2022-09-25T01:29:11.824Z,40.38
2022-09-25T01:32:03.365Z,40.04
2022-09-25T01:34:49.142Z,40.24
2022-09-25T01:37:53.006Z,40.26
2022-09-25T01:40:46.776Z,40.65
2022-09-25T01:43:56.474Z,40.76
2022-09-25T01:46:51.325Z,40.90
2022-09-25T01:49:42.245Z,40.10
2022-09-25T01:52:33.403Z,40.36
2022-09-25T01:55:31.599Z,40.60
2022-09-25T01:58:37.203Z,40.53
2022-09-25T02:01:29.011Z,40.71
2022-09-25T02:04:19.114Z,41.15
2022-09-25T02:07:08.129Z,40.94
2022-09-25T02:09:57.841Z,40.38
2022-09-25T02:12:50.683Z,40.71
2022-09-25T02:15:44.418Z,40.71
2022-09-25T02:18:50.097Z,40.86
2022-09-25T02:21:50.590Z,41.07
2022-09-25T02:24:59.468Z,40.96
2022-09-25T02:27:46.330Z,41.22
2022-09-25T02:30:32.000Z,41.15
2022-09-25T02:33:17.797Z,40.83
2022-09-25T02:36:05.163Z,41.39
2022-09-25T02:38:52.087Z,40.93
2022-09-25T02:41:41.290Z,40.95
2022-09-25T02:44:33.126Z,41.95
2022-09-25T02:47:34.637Z,41.19
2022-09-25T02:50:20.544Z,41.17
2022-09-25T02:53:09.177Z,41.15
2022-09-25T02:56:01.023Z,41.30
2022-09-25T02:58:53.359Z,41.43
2022-09-25T03:01:42.024Z,41.63
2022-09-25T03:04:29.545Z,41.27
2022-09-25T03:07:17.089Z,41.34
2022-09-25T03:10:04.047Z,41.75
2022-09-25T03:12:50.084Z,41.21
2022-09-25T03:15:39.677Z,41.81
2022-09-25T03:18:26.500Z,41.39
2022-09-25T03:21:12.549Z,41.47
2022-09-25T03:23:59.237Z,41.91
2022-09-25T03:26:45.679Z,41.88
2022-09-25T03:29:31.530Z,41.70
2022-09-25T03:32:17.450Z,42.13
2022-09-25T03:35:03.075Z,42.17
2022-09-25T03:37:48.858Z,41.88
2022-09-25T03:40:34.638Z,41.98
2022-09-25T03:43:20.474Z,41.76
2022-09-25T03:46:08.386Z,42.37
2022-09-25T03:48:55.038Z,41.75
2022-09-25T03:51:42.186Z,42.21
2022-09-25T03:54:29.438Z,42.22
2022-09-25T03:57:15.368Z,42.59
2022-09-25T04:00:03.640Z,42.24
2022-09-25T04:02:59.398Z,41.98
2022-09-25T04:05:46.219Z,42.46
2022-09-25T04:08:34.804Z,42.22
2022-09-25T04:11:22.115Z,42.49
2022-09-25T04:14:07.787Z,42.47
2022-09-25T04:16:53.560Z,42.12
2022-09-25T04:19:39.113Z,42.56
2022-09-25T04:22:24.763Z,42.18
2022-09-25T04:25:11.154Z,42.31
2022-09-25T04:27:58.124Z,42.31
2022-09-25T04:30:44.380Z,42.30
2022-09-25T04:33:53.855Z,42.78
2022-09-25T04:36:41.465Z,42.36
2022-09-25T04:39:27.577Z,42.85
2022-09-25T04:42:13.520Z,42.64
2022-09-25T04:44:59.788Z,42.56
2022-09-25T04:47:46.017Z,42.71
2022-09-25T04:50:32.413Z,42.84
2022-09-25T04:53:20.994Z,42.87
2022-09-25T04:56:13.833Z,42.75
2022-09-25T04:59:00.603Z,42.59
2022-09-25T05:01:47.955Z,43.04
2022-09-25T05:04:34.238Z,42.69
2022-09-25T05:07:20.348Z,43.30
2022-09-25T05:10:08.739Z,43.24
2022-09-25T05:12:59.621Z,43.14
2022-09-25T05:15:45.872Z,42.87
2022-09-25T05:18:31.561Z,43.16
2022-09-25T05:21:17.387Z,43.30
2022-09-25T05:24:03.505Z,42.84
2022-09-25T05:26:49.191Z,43.47
2022-09-25T05:29:34.788Z,43.13
2022-09-25T05:32:20.418Z,43.35
2022-09-25T05:35:07.010Z,43.04
2022-09-25T05:37:53.221Z,43.31
2022-09-25T05:40:41.711Z,43.44
2022-09-25T05:43:27.659Z,43.84
2022-09-25T05:46:14.966Z,43.60
2022-09-25T05:49:01.413Z,43.73
2022-09-25T05:51:48.473Z,43.83
2022-09-25T05:54:34.400Z,43.86
2022-09-25T05:57:20.330Z,43.86
2022-09-25T06:00:09.226Z,43.70
2022-09-25T06:03:01.919Z,43.69
2022-09-25T06:05:48.943Z,43.59
2022-09-25T06:08:35.768Z,43.62
2022-09-25T06:11:22.427Z,44.07
2022-09-25T06:14:08.449Z,43.89
2022-09-25T06:16:54.754Z,43.90
2022-09-25T06:19:40.683Z,44.14
2022-09-25T06:22:26.570Z,43.94
2022-09-25T06:25:12.497Z,43.86
2022-09-25T06:28:02.647Z,44.01
2022-09-25T06:30:48.651Z,43.87
2022-09-25T06:33:34.440Z,44.06
2022-09-25T06:36:20.342Z,43.96
2022-09-25T06:39:06.655Z,44.10
2022-09-25T06:41:53.903Z,44.02
2022-09-25T06:44:39.774Z,43.65
2022-09-25T06:47:32.793Z,44.10
2022-09-25T06:50:18.885Z,43.75
2022-09-25T06:53:07.478Z,43.90
2022-09-25T06:55:56.147Z,43.75
2022-09-25T06:58:42.166Z,43.86
2022-09-25T07:01:27.890Z,44.43
2022-09-25T07:04:13.958Z,44.10
2022-09-25T07:07:00.634Z,44.51
2022-09-25T07:09:49.448Z,44.44
2022-09-25T07:12:35.122Z,44.19
2022-09-25T07:15:21.004Z,44.74
2022-09-25T07:18:07.169Z,44.21
2022-09-25T07:20:53.978Z,44.55
2022-09-25T07:23:42.151Z,44.93
2022-09-25T07:26:29.842Z,44.70
2022-09-25T07:29:16.484Z,44.40
2022-09-25T07:32:02.739Z,44.66
2022-09-25T07:34:51.698Z,44.54
2022-09-25T07:37:37.934Z,44.43
2022-09-25T07:40:26.400Z,44.55
2022-09-25T07:43:12.352Z,44.65
2022-09-25T07:45:58.084Z,44.69
2022-09-25T07:48:43.899Z,44.55
2022-09-25T07:51:30.129Z,44.53
2022-09-25T07:54:16.034Z,44.45
2022-09-25T07:57:01.871Z,44.39
2022-09-25T07:59:47.970Z,44.81
2022-09-25T08:02:35.303Z,44.62
2022-09-25T08:05:21.287Z,44.92
2022-09-25T08:08:07.158Z,44.83
2022-09-25T08:10:53.927Z,44.87
2022-09-25T08:13:40.538Z,44.72
2022-09-25T08:16:26.789Z,44.90
2022-09-25T08:19:13.030Z,45.03
2022-09-25T08:22:05.811Z,45.00
2022-09-25T08:24:51.729Z,44.67
2022-09-25T08:27:41.107Z,44.98
2022-09-25T08:30:27.818Z,44.93
2022-09-25T08:33:15.653Z,45.07
2022-09-25T08:36:04.260Z,45.11
2022-09-25T08:38:50.271Z,44.97
2022-09-25T08:41:49.622Z,45.19
2022-09-25T08:45:02.401Z,44.94
2022-09-25T08:48:11.116Z,45.04
2022-09-25T08:50:57.108Z,45.10
2022-09-25T08:53:46.162Z,44.83
2022-09-25T08:56:35.715Z,44.73
2022-09-25T08:59:52.974Z,44.69
2022-09-25T09:02:43.969Z,44.53
2022-09-25T09:05:35.066Z,44.53
2022-09-25T09:08:26.088Z,44.45
2022-09-25T09:11:44.420Z,44.48
2022-09-25T09:14:32.275Z,44.64
2022-09-25T09:17:25.462Z,44.27
2022-09-25T09:20:19.985Z,44.47
2022-09-25T09:23:06.761Z,44.29
2022-09-25T09:25:52.591Z,44.09
2022-09-25T09:28:48.392Z,44.24
2022-09-25T09:32:00.928Z,44.20
2022-09-25T09:35:26.597Z,44.02
2022-09-25T09:38:50.282Z,44.01
2022-09-25T09:41:58.337Z,44.13
2022-09-25T09:45:09.314Z,43.89
2022-09-25T09:48:09.574Z,43.60
2022-09-25T09:51:20.136Z,43.42
2022-09-25T09:54:16.198Z,43.49
2022-09-25T09:57:05.847Z,43.30
2022-09-25T10:00:05.309Z,43.13
2022-09-25T10:03:15.259Z,42.91
2022-09-25T10:06:03.984Z,43.06
2022-09-25T10:08:49.932Z,42.68
2022-09-25T10:11:36.590Z,42.55
2022-09-25T10:14:26.059Z,42.42
2022-09-25T10:17:12.198Z,42.24
2022-09-25T10:20:02.094Z,42.18
2022-09-25T10:22:50.939Z,41.95
2022-09-25T10:25:39.332Z,41.82
2022-09-25T10:28:36.879Z,41.73
2022-09-25T10:31:22.771Z,41.63
2022-09-25T10:34:17.718Z,41.40
2022-09-25T10:37:20.401Z,41.39
2022-09-25T10:40:11.176Z,41.30
2022-09-25T10:43:12.350Z,40.72
2022-09-25T10:46:15.552Z,40.52
2022-09-25T10:49:49.580Z,40.23
2022-09-25T10:52:50.036Z,39.94
2022-09-25T10:55:39.658Z,39.86
2022-09-25T10:58:32.226Z,39.52
2022-09-25T11:01:18.557Z,39.87
2022-09-25T11:04:17.427Z,38.91
2022-09-25T11:07:06.296Z,38.83
2022-09-25T11:09:56.249Z,38.34
2022-09-25T11:12:45.423Z,38.10
2022-09-25T11:15:31.447Z,37.35
2022-09-25T11:18:41.617Z,35.88
2022-09-25T11:21:35.934Z,35.51
2022-09-25T11:24:25.356Z,35.09
2022-09-25T11:27:11.165Z,34.62
2022-09-25T11:30:17.162Z,34.00
2022-09-25T11:33:34.731Z,32.60
2022-09-25T11:36:25.965Z,32.79
2022-09-25T11:39:38.314Z,32.79
2022-09-25T11:42:41.449Z,31.95
2022-09-25T11:45:36.531Z,32.17
2022-09-25T11:48:25.222Z,31.52
2022-09-25T11:51:36.710Z,30.95
2022-09-25T11:54:36.407Z,30.50
2022-09-25T11:57:36.099Z,29.86
2022-09-25T12:00:28.675Z,29.92
2022-09-25T12:03:42.110Z,28.95
2022-09-25T12:07:13.242Z,28.47
2022-09-25T12:10:22.991Z,28.63
2022-09-25T12:13:31.643Z,28.05
2022-09-25T12:16:38.496Z,28.00
2022-09-25T12:19:44.574Z,26.50
2022-09-25T12:22:43.819Z,27.18
2022-09-25T12:25:33.243Z,27.72
2022-09-25T12:28:47.795Z,26.83
2022-09-25T12:31:52.522Z,27.95
2022-09-25T12:34:49.828Z,28.20
2022-09-25T12:37:45.342Z,28.67
2022-09-25T12:40:43.788Z,28.61
2022-09-25T12:43:41.668Z,28.94
2022-09-25T12:46:32.733Z,29.09
2022-09-25T12:49:28.173Z,28.75
2022-09-25T12:52:25.385Z,28.43
2022-09-25T12:55:20.570Z,28.58
2022-09-25T12:58:21.392Z,28.31
2022-09-25T13:01:16.191Z,28.29
2022-09-25T13:04:05.564Z,28.02
2022-09-25T13:07:05.232Z,27.57
2022-09-25T13:09:51.740Z,27.45
2022-09-25T13:12:38.504Z,27.31
2022-09-25T13:15:29.171Z,27.32
2022-09-25T13:18:21.458Z,26.94
2022-09-25T13:21:23.862Z,25.94
2022-09-25T13:24:14.489Z,26.67
2022-09-25T13:27:05.450Z,26.42
2022-09-25T13:30:01.986Z,25.58
2022-09-25T13:32:51.117Z,26.08
2022-09-25T13:35:37.790Z,25.82
2022-09-25T13:38:42.758Z,25.91
2022-09-25T13:41:30.322Z,25.54
2022-09-25T13:44:42.696Z,24.95
2022-09-25T13:47:40.267Z,25.57
2022-09-25T13:50:36.588Z,26.04
2022-09-25T13:53:26.194Z,26.28
2022-09-25T13:56:15.323Z,26.20
2022-09-25T13:59:10.296Z,26.38
2022-09-25T14:02:00.105Z,26.35
2022-09-25T14:04:48.894Z,26.51
2022-09-25T14:07:36.266Z,26.50
2022-09-25T14:10:23.977Z,26.82
2022-09-25T14:13:13.778Z,27.16
2022-09-25T14:16:04.029Z,27.05
2022-09-25T14:18:54.954Z,27.57
2022-09-25T14:21:44.266Z,27.60
2022-09-25T14:24:30.894Z,27.88
2022-09-25T14:27:24.205Z,27.96
2022-09-25T14:30:14.076Z,28.06
2022-09-25T14:33:25.995Z,28.17
2022-09-25T14:36:43.970Z,28.36
2022-09-25T14:39:48.359Z,28.45
2022-09-25T14:42:52.100Z,28.67
2022-09-25T14:45:38.024Z,28.84
2022-09-25T14:48:30.042Z,28.86
2022-09-25T14:51:27.080Z,29.10
2022-09-25T14:54:21.792Z,29.31
2022-09-25T14:57:08.818Z,29.31
2022-09-25T15:00:07.543Z,29.32
2022-09-25T15:02:55.200Z,29.49
2022-09-25T15:05:47.174Z,29.51
2022-09-25T15:08:42.305Z,29.69
2022-09-25T15:11:40.274Z,29.97
2022-09-25T15:14:26.063Z,29.96
2022-09-25T15:17:21.781Z,30.10
2022-09-25T15:20:13.653Z,29.97
2022-09-25T15:23:02.704Z,30.44
2022-09-25T15:25:54.413Z,30.44
2022-09-25T15:28:41.402Z,30.65
2022-09-25T15:31:36.404Z,30.70
2022-09-25T15:34:26.081Z,30.71
2022-09-25T15:37:29.152Z,30.90
2022-09-25T15:40:27.990Z,31.01
2022-09-25T15:43:16.138Z,31.00
2022-09-25T15:46:08.470Z,31.26
2022-09-25T15:48:57.384Z,31.15
2022-09-25T15:52:00.161Z,31.38
2022-09-25T15:54:46.499Z,31.50
2022-09-25T15:57:32.839Z,31.62
2022-09-25T16:00:40.649Z,31.73
2022-09-25T16:03:49.947Z,31.96
2022-09-25T16:06:44.679Z,31.94
2022-09-25T16:09:32.932Z,31.97
2022-09-25T16:12:30.471Z,32.15
2022-09-25T16:15:29.974Z,32.33
2022-09-25T16:18:26.642Z,32.20
2022-09-25T16:21:23.239Z,32.46
2022-09-25T16:24:19.127Z,32.62
2022-09-25T16:27:05.214Z,32.51
2022-09-25T16:29:51.484Z,32.74
2022-09-25T16:32:37.437Z,32.76
2022-09-25T16:36:10.145Z,33.30
2022-09-25T16:39:09.517Z,33.27
2022-09-25T16:41:56.961Z,33.25
2022-09-25T16:44:47.092Z,33.37
2022-09-25T16:47:35.114Z,33.34
2022-09-25T16:50:22.257Z,33.45
2022-09-25T16:53:08.999Z,33.39
2022-09-25T16:55:54.932Z,33.70
2022-09-25T16:58:41.058Z,33.80
2022-09-25T17:01:28.313Z,33.78
2022-09-25T17:04:15.810Z,33.90
2022-09-25T17:07:01.797Z,33.92
2022-09-25T17:10:30.360Z,34.20
2022-09-25T17:13:35.721Z,34.17
2022-09-25T17:16:24.769Z,34.26
2022-09-25T17:19:16.458Z,34.42
2022-09-25T17:22:02.903Z,34.60
2022-09-25T17:24:49.276Z,34.41
2022-09-25T17:27:48.035Z,34.69
2022-09-25T17:30:38.656Z,34.82
2022-09-25T17:33:24.648Z,34.73
2022-09-25T17:36:16.080Z,34.90
2022-09-25T17:39:02.675Z,35.13
2022-09-25T17:42:05.051Z,35.07
2022-09-25T17:44:52.789Z,35.13
2022-09-25T17:47:39.359Z,35.35
2022-09-25T17:50:25.991Z,35.30
2022-09-25T17:53:17.493Z,35.71
2022-09-25T17:56:03.761Z,35.49
2022-09-25T17:58:51.295Z,35.59
2022-09-25T18:01:39.737Z,35.59
2022-09-25T18:04:26.269Z,35.71
2022-09-25T18:07:12.223Z,35.92
2022-09-25T18:09:58.082Z,36.07
2022-09-25T18:12:43.926Z,36.00
2022-09-25T18:15:30.326Z,35.99
2022-09-25T18:18:16.511Z,36.16
2022-09-25T18:21:20.803Z,36.37
2022-09-25T18:24:06.939Z,36.34
2022-09-25T18:26:54.497Z,36.47
2022-09-25T18:29:42.042Z,36.63
2022-09-25T18:32:41.004Z,36.79
2022-09-25T18:35:27.117Z,36.67
2022-09-25T18:38:19.772Z,36.81
2022-09-25T18:41:07.919Z,36.79
2022-09-25T18:43:55.014Z,36.76
2022-09-25T18:46:41.396Z,36.97
2022-09-25T18:49:28.689Z,37.19
2022-09-25T18:52:15.884Z,37.13
2022-09-25T18:55:01.996Z,37.23
2022-09-25T18:57:48.109Z,37.40
2022-09-25T19:00:35.372Z,37.20
2022-09-25T19:03:22.675Z,37.58
2022-09-25T19:06:09.309Z,37.62
2022-09-25T19:08:56.699Z,37.67
2022-09-25T19:11:43.295Z,37.50
2022-09-25T19:14:31.445Z,37.63
2022-09-25T19:17:19.209Z,37.89
2022-09-25T19:20:06.601Z,37.92
2022-09-25T19:22:53.247Z,37.96
2022-09-25T19:25:39.175Z,37.93
2022-09-25T19:28:26.197Z,38.05
2022-09-25T19:31:18.678Z,38.21
2022-09-25T19:34:11.742Z,38.26
2022-09-25T19:37:00.130Z,38.12
2022-09-25T19:40:12.735Z,38.21
2022-09-25T19:43:01.147Z,38.31
2022-09-25T19:45:56.573Z,38.61
2022-09-25T19:48:46.675Z,38.59
2022-09-25T19:51:33.964Z,38.62
2022-09-25T19:54:20.538Z,38.70
2022-09-25T19:57:08.059Z,38.87
2022-09-25T19:59:54.106Z,38.77
2022-09-25T20:02:48.718Z,39.23
2022-09-25T20:05:44.124Z,38.92
2022-09-25T20:08:31.293Z,38.95
2022-09-25T20:11:20.990Z,39.39
2022-09-25T20:14:08.137Z,39.11
2022-09-25T20:16:55.416Z,39.26
2022-09-25T20:19:41.385Z,39.21
2022-09-25T20:22:28.012Z,39.38
2022-09-25T20:25:14.177Z,39.41
2022-09-25T20:28:00.417Z,39.64
2022-09-25T20:30:46.591Z,39.67
2022-09-25T20:33:35.629Z,39.75
2022-09-25T20:36:22.312Z,39.96
2022-09-25T20:39:11.218Z,39.97
2022-09-25T20:42:00.262Z,40.09
2022-09-25T20:44:46.549Z,40.35
2022-09-25T20:47:33.800Z,40.14
2022-09-25T20:50:20.709Z,40.17
2022-09-25T20:53:06.936Z,40.30
2022-09-25T20:55:53.155Z,40.24
2022-09-25T20:58:40.856Z,40.51
2022-09-25T21:01:32.385Z,40.71
2022-09-25T21:04:18.535Z,40.58
2022-09-25T21:07:04.993Z,40.70
2022-09-25T21:09:51.596Z,40.94
2022-09-25T21:12:37.612Z,40.69
2022-09-25T21:15:24.108Z,40.75
2022-09-25T21:18:10.650Z,41.02
2022-09-25T21:21:02.183Z,41.11
2022-09-25T21:23:50.175Z,40.84
2022-09-25T21:26:36.665Z,41.16
2022-09-25T21:29:22.850Z,41.06
2022-09-25T21:32:08.596Z,41.14
2022-09-25T21:34:54.363Z,41.10
2022-09-25T21:37:40.126Z,41.32
2022-09-25T21:40:26.265Z,41.60
2022-09-25T21:43:12.116Z,41.35
2022-09-25T21:46:02.635Z,41.47
2022-09-25T21:48:54.487Z,41.44
2022-09-25T21:51:45.666Z,41.42
2022-09-25T21:54:31.687Z,41.66
2022-09-25T21:57:17.653Z,41.87
2022-09-25T22:00:05.407Z,42.02
2022-09-25T22:02:51.120Z,41.79
2022-09-25T22:05:37.105Z,41.85
2022-09-25T22:08:23.239Z,41.89
2022-09-25T22:11:10.050Z,41.91
2022-09-25T22:13:57.677Z,42.20
2022-09-25T22:16:45.937Z,42.29
2022-09-25T22:19:31.815Z,42.26
2022-09-25T22:22:17.810Z,42.36
2022-09-25T22:25:03.952Z,42.33
2022-09-25T22:27:52.762Z,42.26
2022-09-25T22:30:39.180Z,42.46
2022-09-25T22:33:24.952Z,42.26
2022-09-25T22:36:12.006Z,42.37
2022-09-25T22:38:57.984Z,42.31
2022-09-25T22:41:44.203Z,42.72
2022-09-25T22:44:30.043Z,42.66
2022-09-25T22:47:16.159Z,42.73
2022-09-25T22:50:02.086Z,42.80
2022-09-25T22:52:47.847Z,42.64
2022-09-25T22:55:33.819Z,42.77
2022-09-25T22:58:19.880Z,42.64
2022-09-25T23:01:11.779Z,43.03
2022-09-25T23:03:59.798Z,42.94
2022-09-25T23:06:45.936Z,43.01
2022-09-25T23:09:31.782Z,43.00
2022-09-25T23:12:17.689Z,43.33
2022-09-25T23:15:04.034Z,43.28
2022-09-25T23:17:49.936Z,42.93
2022-09-25T23:20:36.409Z,43.24
2022-09-25T23:23:22.460Z,43.42
2022-09-25T23:26:08.916Z,43.27
2022-09-25T23:28:55.485Z,43.34
2022-09-25T23:31:42.265Z,43.15
2022-09-25T23:34:28.015Z,43.49
2022-09-25T23:37:13.963Z,43.46
2022-09-25T23:39:59.950Z,43.57
2022-09-25T23:42:45.661Z,43.50
2022-09-25T23:45:31.621Z,43.46
2022-09-25T23:48:17.543Z,43.71
2022-09-25T23:51:03.759Z,43.80
2022-09-25T23:53:50.366Z,43.78
2022-09-25T23:56:36.427Z,43.69
2022-09-25T23:59:25.772Z,43.68
